Main page
METAR-TAF:

METAR-TAF

Airports :

Lydd, England

Lydd Airport

latitude: 50-57N, longitude: 000-56E, elevation: 3 m

Current weather observation

The report was made 28 minutes ago, at 17:20 UTC
Wind 11 kt from the Southwest
Temperature 11°C
Humidity 76%
Pressure 1017 hPa
Visibility 10 km or more
Few clouds at a height of 4700 ft

METAR: EGMD 281720Z 23011KT 9999 FEW047 11/07 Q1017

Time: 18:48 (17:48 UTC)

Forecast

The report was made 43 minutes ago, at 17:05 UTC
Forecast valid from 28 at 18 UTC to 29 at 03 UTC
Wind 9 kt from the Southwest
Visibility 10 km or more
Scattered clouds at a height of 4500 ft

TAF: EGMD 281705Z 2818/2903 23009KT 9999 SCT045

Weather observations and forecasts of more than 4000 airports (METAR and TAF reports).

The available stations are represented by yellow and red dots on the map.

Hover mouse over dot to see the name of the station.

Then click to see weather observations and forecasts.

To change the map : click on the green buttons with a black cross to zoom in, on the green button with a dash to zoom out, or on the green arrows for adjacent maps.


METAR-TAF: